Time;durP1;ratioP1;P1;durP2;ratioP2;P2;SDS_P1;SDS_P2;PMS_P1;PMS_P2;Temp;Humidity;BMP_temperature;BMP_pressure;BME280_temperature;BME280_humidity;BME280_pressure;Samples;Min_cycle;Max_cycle;Signal;HPM_P1;HPM_P2
2021/03/29 00:01:29;;;;;;;1.90;1.63;;;6.30;99.90;;;;;;5081522;28;20419;-71
2021/03/29 00:03:55;;;;;;;2.60;2.40;;;6.30;99.90;;;;;;5080528;28;20527;-71
2021/03/29 00:06:23;;;;;;;2.30;1.77;;;6.30;99.90;;;;;;5077492;28;20172;-71
2021/03/29 00:08:49;;;;;;;2.70;2.10;;;6.30;99.90;;;;;;5081393;28;20459;-71
2021/03/29 00:11:16;;;;;;;2.43;1.97;;;6.30;99.90;;;;;;5080452;28;20426;-71
2021/03/29 00:13:42;;;;;;;2.77;2.20;;;6.30;99.90;;;;;;5086550;28;20446;-71
2021/03/29 00:16:09;;;;;;;4.53;1.77;;;6.30;99.90;;;;;;5085530;28;20494;-72
2021/03/29 00:18:35;;;;;;;5.57;2.13;;;6.20;99.90;;;;;;5078067;28;20915;-72
2021/03/29 00:21:05;;;;;;;1.77;1.60;;;6.20;99.90;;;;;;5082210;28;20432;-73
2021/03/29 00:23:31;;;;;;;16.13;3.67;;;6.20;99.90;;;;;;5080600;28;20226;-73
2021/03/29 00:25:57;;;;;;;2.80;1.83;;;6.20;99.90;;;;;;5079208;28;20791;-72
2021/03/29 00:28:22;;;;;;;3.23;1.97;;;6.20;99.90;;;;;;5081717;28;20474;-71
2021/03/29 00:30:49;;;;;;;6.83;1.80;;;6.20;99.90;;;;;;5078198;28;20414;-72
2021/03/29 00:33:16;;;;;;;3.17;2.13;;;6.20;99.90;;;;;;5079340;28;20242;-71
2021/03/29 00:35:46;;;;;;;6.37;2.40;;;6.20;99.90;;;;;;5081702;28;20503;-72
2021/03/29 00:38:13;;;;;;;2.93;2.00;;;6.20;99.90;;;;;;5081157;28;20419;-72
2021/03/29 00:40:52;;;;;;;6.57;1.97;;;6.20;99.90;;;;;;5088971;28;20426;-71
2021/03/29 00:43:22;;;;;;;5.87;2.30;;;6.20;99.90;;;;;;5082649;28;20446;-72
2021/03/29 00:45:49;;;;;;;4.37;1.77;;;6.20;99.90;;;;;;5080391;28;20420;-72
2021/03/29 00:48:19;;;;;;;4.63;2.57;;;6.20;99.90;;;;;;5083697;28;20434;-72
2021/03/29 00:50:52;;;;;;;7.50;1.73;;;6.20;99.90;;;;;;5084673;28;20410;-71
2021/03/29 00:53:17;;;;;;;2.00;1.90;;;6.10;99.90;;;;;;5080617;28;20526;-72
2021/03/29 00:55:46;;;;;;;3.67;1.80;;;6.10;99.90;;;;;;5083480;28;20598;-71
2021/03/29 00:58:14;;;;;;;3.53;1.93;;;6.10;99.90;;;;;;5080544;28;20937;-72
2021/03/29 01:00:48;;;;;;;3.90;2.53;;;6.10;99.90;;;;;;5084329;28;20959;-73
2021/03/29 01:03:19;;;;;;;3.63;2.10;;;6.00;99.90;;;;;;5078884;28;20533;-71
2021/03/29 01:05:46;;;;;;;2.73;1.57;;;6.00;99.90;;;;;;5085908;28;20411;-71
2021/03/29 01:08:15;;;;;;;5.30;1.90;;;6.00;99.90;;;;;;5080332;28;21002;-71
2021/03/29 01:10:41;;;;;;;4.93;2.60;;;6.00;99.90;;;;;;5079644;28;20440;-72
2021/03/29 01:13:12;;;;;;;3.63;1.40;;;6.00;99.90;;;;;;5081071;28;20712;-71
2021/03/29 01:15:40;;;;;;;2.10;1.70;;;5.90;99.90;;;;;;5082313;28;21002;-72
2021/03/29 01:18:10;;;;;;;2.83;1.30;;;5.90;99.90;;;;;;5080597;28;20951;-72
2021/03/29 01:20:58;;;;;;;1.90;1.43;;;5.80;99.90;;;;;;5080006;28;20431;-73
2021/03/29 01:23:26;;;;;;;3.40;1.80;;;5.90;99.90;;;;;;5078362;28;20493;-71
2021/03/29 01:25:58;;;;;;;2.87;1.30;;;5.90;99.90;;;;;;5082981;28;20823;-71
2021/03/29 01:28:24;;;;;;;7.43;2.00;;;5.80;99.90;;;;;;5083859;28;20436;-71
2021/03/29 01:30:51;;;;;;;1.60;1.50;;;5.70;99.90;;;;;;5081656;28;20434;-71
2021/03/29 01:33:19;;;;;;;4.60;2.00;;;5.70;99.90;;;;;;5078434;28;20457;-72
2021/03/29 01:35:51;;;;;;;2.87;1.77;;;5.70;99.90;;;;;;5081141;28;21014;-71
2021/03/29 01:38:17;;;;;;;3.03;1.70;;;5.60;99.90;;;;;;5081941;28;20430;-72
2021/03/29 01:40:44;;;;;;;4.13;2.07;;;5.60;99.90;;;;;;5083941;28;20508;-69
2021/03/29 01:43:12;;;;;;;2.60;1.93;;;5.50;99.90;;;;;;5080322;28;20473;-72
2021/03/29 01:45:39;;;;;;;4.60;2.03;;;5.40;99.90;;;;;;5080178;28;21086;-72
2021/03/29 01:48:07;;;;;;;2.70;1.70;;;5.50;99.90;;;;;;5084327;28;20476;-72
2021/03/29 01:50:35;;;;;;;8.50;2.13;;;5.40;99.90;;;;;;5081043;28;20450;-72
2021/03/29 01:53:04;;;;;;;1.57;1.43;;;5.40;99.90;;;;;;5081193;28;20836;-72
2021/03/29 01:55:31;;;;;;;2.40;1.87;;;5.30;99.90;;;;;;5080112;28;20522;-73
2021/03/29 01:57:58;;;;;;;9.00;2.90;;;5.30;99.90;;;;;;5082707;28;20476;-72
2021/03/29 02:00:36;;;;;;;7.47;2.00;;;5.20;99.90;;;;;;5084053;28;20438;-71
2021/03/29 02:03:07;;;;;;;2.80;1.83;;;5.20;99.90;;;;;;5083244;28;20581;-71
2021/03/29 02:05:34;;;;;;;4.10;1.63;;;5.20;99.90;;;;;;5080205;28;20524;-72
2021/03/29 02:08:01;;;;;;;3.37;1.30;;;5.10;99.90;;;;;;5079723;28;20440;-71
2021/03/29 02:10:30;;;;;;;4.40;2.40;;;5.10;99.90;;;;;;5082309;28;20503;-70
2021/03/29 02:13:01;;;;;;;3.63;1.50;;;5.10;99.90;;;;;;5081183;28;20519;-72
2021/03/29 02:15:28;;;;;;;4.17;2.10;;;5.00;99.90;;;;;;5078666;28;20478;-71
2021/03/29 02:17:58;;;;;;;4.43;1.50;;;5.00;99.90;;;;;;5082477;28;20790;-72
2021/03/29 02:20:27;;;;;;;3.77;1.80;;;5.00;99.90;;;;;;5080800;28;20422;-71
2021/03/29 02:22:54;;;;;;;5.20;2.10;;;4.90;99.90;;;;;;5081643;28;20533;-71
2021/03/29 02:25:23;;;;;;;2.83;2.00;;;4.90;99.90;;;;;;5079069;28;20525;-72
2021/03/29 02:27:50;;;;;;;8.57;1.70;;;4.90;99.90;;;;;;5081850;28;21931;-71
2021/03/29 02:30:19;;;;;;;4.63;1.93;;;4.90;99.90;;;;;;5078707;28;20429;-70
2021/03/29 02:32:47;;;;;;;5.27;2.10;;;4.80;99.90;;;;;;5084050;28;20462;-71
2021/03/29 02:35:14;;;;;;;10.53;2.03;;;4.70;99.90;;;;;;5084127;28;20465;-71
2021/03/29 02:37:44;;;;;;;3.50;1.57;;;4.70;99.90;;;;;;5082359;28;20493;-71
2021/03/29 02:40:10;;;;;;;7.57;2.50;;;4.60;99.90;;;;;;5079950;28;20832;-71
2021/03/29 02:42:37;;;;;;;4.80;2.50;;;4.60;99.90;;;;;;5078317;28;20446;-71
2021/03/29 02:45:08;;;;;;;2.43;1.67;;;4.60;99.90;;;;;;5082956;28;20425;-71
2021/03/29 02:47:34;;;;;;;4.23;1.97;;;4.60;99.90;;;;;;5080020;28;20489;-71
2021/03/29 02:50:01;;;;;;;4.50;1.87;;;4.50;99.90;;;;;;5084057;28;20462;-71
2021/03/29 02:52:28;;;;;;;1.83;1.73;;;4.50;99.90;;;;;;5082950;28;20452;-72
2021/03/29 02:54:54;;;;;;;5.17;1.60;;;4.50;99.90;;;;;;5081214;28;20881;-73
2021/03/29 02:57:20;;;;;;;2.67;1.77;;;4.50;99.90;;;;;;5077735;28;20436;-72
2021/03/29 02:59:46;;;;;;;3.03;2.00;;;4.50;99.90;;;;;;5084653;28;20426;-72
2021/03/29 03:02:13;;;;;;;3.90;2.10;;;4.40;99.90;;;;;;5084396;28;21029;-73
2021/03/29 03:04:40;;;;;;;4.50;2.27;;;4.40;99.90;;;;;;5078428;28;20504;-71
2021/03/29 03:07:06;;;;;;;6.47;1.67;;;4.40;99.90;;;;;;5061698;28;20498;-72
2021/03/29 03:09:33;;;;;;;2.00;1.80;;;4.30;99.90;;;;;;5083856;28;20532;-71
2021/03/29 03:11:59;;;;;;;2.97;1.70;;;4.30;99.90;;;;;;5080977;28;20198;-69
2021/03/29 03:14:25;;;;;;;2.63;1.60;;;4.30;99.90;;;;;;5077234;28;20459;-72
2021/03/29 03:16:51;;;;;;;3.03;1.70;;;4.30;99.90;;;;;;5077715;28;20457;-73
2021/03/29 03:19:19;;;;;;;6.10;2.30;;;4.20;99.90;;;;;;5078922;28;20192;-71
2021/03/29 03:21:44;;;;;;;5.53;1.53;;;4.20;99.90;;;;;;5081925;28;20186;-71
2021/03/29 03:24:10;;;;;;;3.80;2.30;;;4.20;99.90;;;;;;5076153;28;20474;-71
2021/03/29 03:26:36;;;;;;;2.97;2.40;;;4.20;99.90;;;;;;5081368;28;20185;-72
2021/03/29 03:29:03;;;;;;;2.30;2.10;;;4.20;99.90;;;;;;5078546;28;20463;-72
2021/03/29 03:31:29;;;;;;;2.73;1.40;;;4.10;99.90;;;;;;5076626;28;20495;-71
2021/03/29 03:33:55;;;;;;;2.30;1.60;;;4.10;99.90;;;;;;5076359;28;20463;-71
2021/03/29 03:36:23;;;;;;;9.50;1.80;;;4.10;99.90;;;;;;5078955;28;20248;-71
2021/03/29 03:38:50;;;;;;;4.23;1.70;;;4.10;99.90;;;;;;5075251;28;20261;-71
2021/03/29 03:41:20;;;;;;;4.70;1.87;;;4.10;99.90;;;;;;5080983;28;20416;-71
2021/03/29 03:43:49;;;;;;;3.17;2.77;;;4.00;99.90;;;;;;5082725;28;21139;-71
2021/03/29 03:46:17;;;;;;;2.80;1.77;;;4.00;99.90;;;;;;5079273;28;20504;-71
2021/03/29 03:48:44;;;;;;;6.20;1.80;;;4.00;99.90;;;;;;5077378;28;20432;-73
2021/03/29 03:51:11;;;;;;;4.47;2.13;;;3.90;99.90;;;;;;5082400;28;20898;-71
2021/03/29 03:53:37;;;;;;;6.10;2.07;;;3.90;99.90;;;;;;5081358;28;20451;-72
2021/03/29 03:56:04;;;;;;;4.50;2.20;;;3.90;99.90;;;;;;5079207;28;20553;-73
2021/03/29 03:58:30;;;;;;;2.70;2.40;;;3.80;99.90;;;;;;5080838;28;20427;-71
2021/03/29 04:00:57;;;;;;;4.03;2.13;;;3.90;99.90;;;;;;5080345;28;20450;-72
2021/03/29 04:03:26;;;;;;;5.77;1.87;;;3.80;99.90;;;;;;5078280;28;21041;-72
2021/03/29 04:05:52;;;;;;;2.50;2.00;;;3.80;99.90;;;;;;5082555;28;20512;-71
2021/03/29 04:08:18;;;;;;;13.77;2.10;;;3.70;99.90;;;;;;5081085;28;20554;-71
2021/03/29 04:10:48;;;;;;;3.03;1.67;;;3.70;99.90;;;;;;5086625;28;20189;-73
2021/03/29 04:15:49;;;;;;;6.43;2.57;;;3.70;99.90;;;;;;5081293;28;20469;-73
2021/03/29 04:18:15;;;;;;;10.97;2.57;;;3.70;99.90;;;;;;5085474;28;20938;-71
2021/03/29 04:20:41;;;;;;;2.60;1.90;;;3.70;99.90;;;;;;5084679;28;20707;-73
2021/03/29 04:23:07;;;;;;;5.47;2.50;;;3.70;99.90;;;;;;5081656;28;20229;-72
2021/03/29 04:25:33;;;;;;;3.13;1.70;;;3.80;99.90;;;;;;5085305;28;20909;-72
2021/03/29 04:27:58;;;;;;;5.27;2.20;;;3.80;99.90;;;;;;5081808;28;20497;-73
2021/03/29 04:30:25;;;;;;;3.30;2.10;;;3.90;99.90;;;;;;5078259;28;20693;-71
2021/03/29 04:32:54;;;;;;;7.80;2.20;;;3.90;99.90;;;;;;5081143;28;20203;-72
2021/03/29 04:35:22;;;;;;;5.03;2.77;;;3.90;99.90;;;;;;5086300;28;20462;-72
2021/03/29 04:37:50;;;;;;;4.87;2.73;;;4.00;99.90;;;;;;5084929;28;20417;-71
2021/03/29 04:40:17;;;;;;;6.80;3.10;;;4.00;99.90;;;;;;5084305;28;20456;-71
2021/03/29 04:42:42;;;;;;;8.47;3.07;;;4.10;99.90;;;;;;5084383;28;20958;-72
2021/03/29 04:45:09;;;;;;;8.23;3.00;;;4.20;99.90;;;;;;5082496;28;20515;-71
2021/03/29 04:47:35;;;;;;;6.17;2.33;;;4.20;99.90;;;;;;5083276;28;20175;-72
2021/03/29 04:50:00;;;;;;;4.67;2.20;;;4.30;99.90;;;;;;5082608;28;20440;-71
2021/03/29 04:52:26;;;;;;;8.43;2.70;;;4.30;99.90;;;;;;5085652;28;20213;-73
2021/03/29 04:54:52;;;;;;;4.63;2.40;;;4.40;99.90;;;;;;5082353;28;20204;-71
2021/03/29 04:57:18;;;;;;;7.43;2.90;;;4.40;99.90;;;;;;5081829;28;20436;-72
2021/03/29 04:59:43;;;;;;;3.87;2.87;;;4.40;99.90;;;;;;5084763;28;20862;-72
2021/03/29 05:02:10;;;;;;;9.43;2.17;;;4.40;99.90;;;;;;5081515;28;20727;-70
2021/03/29 05:04:36;;;;;;;2.40;1.83;;;4.50;99.90;;;;;;5082128;28;20174;-71
2021/03/29 05:07:07;;;;;;;3.23;2.77;;;4.60;99.90;;;;;;5084817;28;20436;-71
2021/03/29 05:09:32;;;;;;;1.83;1.57;;;4.60;99.90;;;;;;5081837;28;20183;-70
2021/03/29 05:12:07;;;;;;;6.90;2.10;;;4.60;99.90;;;;;;5089117;28;20459;-70
2021/03/29 05:14:32;;;;;;;3.10;2.30;;;4.70;99.90;;;;;;5091388;28;20198;-71
2021/03/29 05:16:58;;;;;;;6.67;2.90;;;4.70;99.90;;;;;;5082820;28;20447;-70
2021/03/29 05:19:23;;;;;;;2.67;2.10;;;4.80;99.90;;;;;;5081354;28;20356;-70
2021/03/29 05:21:49;;;;;;;5.57;3.10;;;4.90;99.90;;;;;;5081455;28;20243;-69
2021/03/29 05:24:14;;;;;;;6.00;3.20;;;4.90;99.90;;;;;;5086838;28;20198;-68
2021/03/29 05:26:40;;;;;;;7.67;2.93;;;4.90;99.90;;;;;;5086212;28;20202;-70
2021/03/29 05:29:05;;;;;;;3.13;2.83;;;5.00;99.90;;;;;;5097421;28;20582;-69
2021/03/29 05:31:35;;;;;;;5.93;3.10;;;5.10;99.90;;;;;;5082198;28;20683;-70
2021/03/29 05:34:01;;;;;;;6.20;3.40;;;5.20;99.90;;;;;;5087311;28;20291;-70
2021/03/29 05:36:26;;;;;;;6.97;2.80;;;5.20;99.90;;;;;;5085507;28;20929;-70
2021/03/29 05:38:52;;;;;;;11.00;2.30;;;5.30;99.90;;;;;;5080862;28;20176;-70
2021/03/29 05:41:17;;;;;;;9.97;3.43;;;5.40;99.90;;;;;;5082492;28;20179;-70
2021/03/29 05:43:43;;;;;;;8.00;3.43;;;5.40;99.90;;;;;;5082952;28;20200;-70
2021/03/29 05:46:09;;;;;;;3.43;2.80;;;5.40;99.90;;;;;;5081149;28;20185;-70
2021/03/29 05:48:36;;;;;;;6.90;3.90;;;5.50;99.90;;;;;;5079148;28;20430;-71
2021/03/29 05:51:03;;;;;;;6.67;2.87;;;5.60;99.90;;;;;;5082499;28;20959;-70
2021/03/29 05:53:28;;;;;;;6.57;3.40;;;5.60;99.90;;;;;;5089015;28;20552;-70
2021/03/29 05:55:55;;;;;;;6.70;3.20;;;5.60;99.90;;;;;;5091609;28;20974;-71
2021/03/29 06:00:51;;;;;;;7.13;3.13;;;5.80;99.90;;;;;;5080441;28;20520;-70
2021/03/29 06:03:37;;;;;;;6.60;2.70;;;5.90;99.90;;;;;;5086899;28;20893;-69
2021/03/29 06:06:11;;;;;;;3.53;2.30;;;6.00;99.90;;;;;;5084399;28;20465;-71
2021/03/29 06:08:51;;;;;;;6.77;3.03;;;6.20;99.90;;;;;;5084171;28;20440;-71
2021/03/29 06:11:25;;;;;;;5.13;3.67;;;6.30;99.90;;;;;;5091514;28;20980;-71
2021/03/29 06:14:14;;;;;;;5.30;2.40;;;6.50;99.90;;;;;;5081854;28;20449;-72
2021/03/29 06:16:53;;;;;;;7.93;2.77;;;6.60;99.90;;;;;;5080347;28;20441;-69
2021/03/29 06:19:40;;;;;;;7.27;2.80;;;6.80;99.90;;;;;;5085798;28;20439;-69
2021/03/29 06:22:19;;;;;;;9.50;4.63;;;7.00;99.90;;;;;;5080850;28;20436;-70
2021/03/29 06:25:07;;;;;;;8.03;3.43;;;7.20;99.90;;;;;;5086916;28;20429;-71
2021/03/29 06:27:51;;;;;;;5.60;3.10;;;7.70;99.90;;;;;;5078834;28;20437;-69
2021/03/29 06:30:19;;;;;;;2.97;2.67;;;8.20;99.90;;;;;;5089047;28;20439;-71
2021/03/29 06:33:08;;;;;;;6.47;3.90;;;8.90;99.90;;;;;;5081486;28;20590;-72
2021/03/29 06:35:41;;;;;;;8.80;3.30;;;9.20;99.90;;;;;;5082411;28;20458;-71
2021/03/29 06:38:25;;;;;;;5.80;4.67;;;9.20;99.90;;;;;;5079630;28;20417;-71
2021/03/29 06:40:50;;;;;;;13.57;4.80;;;9.00;99.90;;;;;;5080817;28;20495;-71
2021/03/29 06:43:41;;;;;;;17.03;4.50;;;9.00;99.90;;;;;;5082217;28;20523;-70
2021/03/29 06:46:24;;;;;;;6.87;4.23;;;8.90;99.90;;;;;;5083160;28;20736;-71
2021/03/29 06:48:52;;;;;;;10.60;4.70;;;8.90;99.90;;;;;;5076800;28;20428;-70
2021/03/29 06:51:20;;;;;;;11.93;5.70;;;8.80;99.90;;;;;;5085112;28;20932;-70
2021/03/29 06:54:02;;;;;;;11.47;5.73;;;8.90;99.90;;;;;;5087117;28;20553;-70
2021/03/29 06:56:33;;;;;;;10.70;4.60;;;9.00;99.90;;;;;;5094472;28;20419;-71
2021/03/29 06:59:05;;;;;;;10.30;4.37;;;9.10;99.90;;;;;;5089043;28;20420;-70
2021/03/29 07:01:33;;;;;;;7.90;4.67;;;9.20;99.90;;;;;;5083259;28;20426;-70
2021/03/29 07:03:58;;;;;;;6.90;4.20;;;9.30;99.90;;;;;;5080236;28;20453;-70
2021/03/29 07:06:30;;;;;;;15.03;4.77;;;9.60;99.90;;;;;;5078356;28;20412;-70
2021/03/29 07:09:04;;;;;;;6.80;5.10;;;9.90;99.90;;;;;;5080933;28;20178;-70
2021/03/29 07:11:30;;;;;;;7.97;4.17;;;10.30;99.90;;;;;;5080229;28;20416;-72
2021/03/29 07:13:58;;;;;;;11.60;4.60;;;10.70;99.90;;;;;;5081145;28;21148;-71
2021/03/29 07:16:26;;;;;;;9.37;4.63;;;11.20;99.90;;;;;;5080966;28;20188;-71
2021/03/29 07:18:55;;;;;;;9.77;3.70;;;11.80;99.90;;;;;;5079772;28;20489;-70
2021/03/29 07:21:21;;;;;;;10.20;4.33;;;12.30;99.90;;;;;;5081265;28;20416;-71
2021/03/29 07:23:47;;;;;;;6.27;4.40;;;12.80;99.90;;;;;;5079136;28;20534;-71
2021/03/29 07:26:30;;;;;;;8.13;4.70;;;13.00;99.90;;;;;;5082448;28;20567;-71
2021/03/29 07:28:56;;;;;;;10.43;4.57;;;13.20;99.90;;;;;;5079795;28;20832;-71
2021/03/29 07:31:42;;;;;;;15.27;4.87;;;13.30;99.90;;;;;;5081029;28;20501;-69
2021/03/29 07:34:09;;;;;;;8.97;3.77;;;13.10;99.90;;;;;;5078297;28;20185;-71
2021/03/29 07:36:50;;;;;;;6.53;4.30;;;12.90;99.90;;;;;;5082082;28;20773;-69
2021/03/29 07:39:40;;;;;;;11.37;5.00;;;12.80;99.90;;;;;;5081863;28;20914;-71
2021/03/29 07:42:39;;;;;;;8.43;4.50;;;13.00;99.90;;;;;;5077112;28;20454;-70
2021/03/29 07:45:10;;;;;;;11.70;4.77;;;13.00;99.90;;;;;;5038122;28;20427;-71
2021/03/29 07:47:54;;;;;;;10.33;4.77;;;13.00;99.90;;;;;;5086387;28;20417;-71
2021/03/29 07:50:39;;;;;;;7.63;4.67;;;13.10;99.90;;;;;;5083810;28;20419;-71
2021/03/29 07:53:18;;;;;;;8.23;4.60;;;13.40;99.90;;;;;;5082897;28;20475;-71
2021/03/29 07:55:51;;;;;;;8.00;4.33;;;13.70;99.90;;;;;;5082939;28;20449;-70
2021/03/29 07:58:18;;;;;;;13.53;4.53;;;14.00;99.90;;;;;;5082853;28;20433;-71
2021/03/29 08:00:46;;;;;;;9.00;4.53;;;14.20;99.90;;;;;;5082342;28;20430;-71
2021/03/29 08:03:11;;;;;;;15.50;4.80;;;14.60;99.90;;;;;;5082201;28;20472;-72
2021/03/29 08:05:39;;;;;;;15.13;4.40;;;15.00;99.90;;;;;;5082454;28;20459;-73
2021/03/29 08:08:25;;;;;;;8.80;3.80;;;15.50;99.90;;;;;;5086034;28;20677;-74
2021/03/29 08:10:58;;;;;;;11.00;5.00;;;15.70;99.90;;;;;;5046760;28;20425;-72
2021/03/29 08:13:41;;;;;;;9.47;4.53;;;15.70;99.90;;;;;;5083671;28;20439;-72
2021/03/29 08:16:13;;;;;;;16.87;5.20;;;15.70;99.90;;;;;;5082370;28;20537;-72
2021/03/29 08:19:06;;;;;;;21.10;6.23;;;16.00;99.90;;;;;;5082303;28;20484;-72
2021/03/29 08:21:41;;;;;;;10.90;4.50;;;16.20;99.90;;;;;;5084983;28;20526;-73
2021/03/29 08:24:22;;;;;;;11.47;4.80;;;16.20;99.90;;;;;;5082096;28;20429;-73
2021/03/29 08:26:49;;;;;;;12.87;5.43;;;16.20;99.90;;;;;;5083163;28;20409;-72
2021/03/29 08:29:30;;;;;;;15.47;5.33;;;16.50;99.90;;;;;;5085361;28;20439;-70
2021/03/29 08:32:05;;;;;;;11.23;4.23;;;17.00;99.90;;;;;;5083748;28;20980;-69
2021/03/29 08:34:50;;;;;;;14.20;4.70;;;17.40;99.90;;;;;;5082704;28;20470;-70
2021/03/29 08:37:18;;;;;;;12.57;4.70;;;18.00;99.90;;;;;;5080365;28;20661;-71
2021/03/29 08:39:46;;;;;;;20.47;4.83;;;18.00;99.90;;;;;;5084574;28;20757;-70
2021/03/29 08:42:12;;;;;;;10.23;4.63;;;18.30;99.90;;;;;;5082720;28;20441;-70
2021/03/29 08:44:41;;;;;;;13.80;4.70;;;18.70;99.90;;;;;;5081175;28;20419;-71
2021/03/29 08:47:08;;;;;;;9.57;4.87;;;18.90;99.90;;;;;;5081227;28;20509;-70
2021/03/29 08:49:35;;;;;;;16.77;5.80;;;19.20;99.90;;;;;;5076914;28;20456;-71
2021/03/29 08:52:00;;;;;;;12.30;5.40;;;19.70;99.90;;;;;;5082434;28;20836;-70
2021/03/29 08:54:26;;;;;;;8.70;3.90;;;19.90;99.50;;;;;;5081120;28;20541;-70
2021/03/29 08:57:04;;;;;;;14.20;4.30;;;20.20;99.30;;;;;;5080830;28;20179;-71
2021/03/29 08:59:30;;;;;;;11.63;3.80;;;20.50;99.90;;;;;;5081601;28;20417;-71
2021/03/29 09:01:56;;;;;;;11.87;3.57;;;20.70;98.00;;;;;;5083038;28;20442;-71
2021/03/29 09:04:21;;;;;;;14.33;3.50;;;20.70;97.40;;;;;;5082655;28;20438;-71
2021/03/29 09:06:56;;;;;;;12.87;3.47;;;21.10;97.60;;;;;;5084048;28;20195;-73
2021/03/29 09:09:23;;;;;;;4.47;3.23;;;21.30;96.30;;;;;;5081565;28;20180;-72
2021/03/29 09:11:51;;;;;;;11.67;4.40;;;21.70;95.70;;;;;;5083549;28;20410;-71
2021/03/29 09:14:19;;;;;;;5.10;1.80;;;21.80;96.90;;;;;;5081768;28;20415;-72
2021/03/29 09:16:46;;;;;;;3.60;1.80;;;22.00;95.50;;;;;;5083863;28;20476;-73
2021/03/29 09:19:17;;;;;;;5.70;1.80;;;22.10;94.90;;;;;;5081367;28;20496;-73
2021/03/29 09:21:43;;;;;;;4.00;1.70;;;22.70;93.50;;;;;;5083023;28;20422;-71
2021/03/29 09:24:16;;;;;;;1.63;1.53;;;22.90;91.80;;;;;;5084441;28;20434;-74
2021/03/29 09:26:42;;;;;;;2.67;1.70;;;22.70;92.00;;;;;;5084523;28;20469;-69
2021/03/29 09:29:31;;;;;;;4.13;1.40;;;22.90;92.40;;;;;;5081037;28;20466;-71
2021/03/29 09:31:58;;;;;;;1.80;1.40;;;23.00;90.90;;;;;;5082644;28;20172;-73
2021/03/29 09:34:24;;;;;;;5.03;1.37;;;23.30;90.90;;;;;;5082672;28;20493;-73
2021/03/29 09:36:49;;;;;;;9.93;1.63;;;23.10;90.50;;;;;;5081800;28;20757;-73
2021/03/29 09:39:15;;;;;;;2.67;1.10;;;23.50;91.00;;;;;;5082668;28;20176;-73
2021/03/29 09:41:51;;;;;;;5.70;1.20;;;23.70;90.40;;;;;;5080644;28;20318;-74
2021/03/29 09:44:25;;;;;;;5.07;1.37;;;24.10;90.40;;;;;;5081290;28;20173;-72
2021/03/29 09:46:54;;;;;;;2.20;1.40;;;23.90;86.40;;;;;;5081572;28;20421;-71
2021/03/29 09:49:20;;;;;;;5.57;1.70;;;23.80;87.10;;;;;;5081814;28;20452;-74
2021/03/29 09:51:48;;;;;;;4.83;1.57;;;23.90;83.90;;;;;;5083454;28;20491;-76
2021/03/29 09:54:28;;;;;;;4.50;1.30;;;23.50;83.70;;;;;;5080430;28;20169;-76
2021/03/29 09:56:56;;;;;;;6.00;2.13;;;23.70;86.70;;;;;;5082372;28;20445;-76
2021/03/29 09:59:30;;;;;;;2.97;1.10;;;24.10;84.40;;;;;;5081902;28;20513;-75
2021/03/29 10:01:56;;;;;;;3.97;1.30;;;24.30;82.20;;;;;;5081655;28;20413;-74
2021/03/29 10:04:23;;;;;;;3.63;1.40;;;24.20;82.00;;;;;;5081738;28;20446;-71
2021/03/29 10:06:54;;;;;;;3.33;1.30;;;24.10;80.70;;;;;;5081667;28;20513;-72
2021/03/29 10:09:34;;;;;;;3.77;1.33;;;24.10;81.10;;;;;;5081416;28;20811;-72
2021/03/29 10:12:01;;;;;;;3.20;1.60;;;24.20;81.00;;;;;;5080884;28;20558;-70
2021/03/29 10:14:33;;;;;;;4.30;1.43;;;24.60;77.60;;;;;;5081959;28;20459;-72
2021/03/29 10:16:59;;;;;;;4.53;1.40;;;25.00;78.70;;;;;;5081066;28;21011;-71
2021/03/29 10:19:33;;;;;;;8.73;1.90;;;24.50;80.00;;;;;;5082211;28;20502;-72
2021/03/29 10:22:09;;;;;;;4.37;2.00;;;24.70;78.20;;;;;;5081440;28;20845;-70
2021/03/29 10:24:37;;;;;;;2.20;1.20;;;24.60;76.30;;;;;;5083300;28;20459;-72
2021/03/29 10:27:05;;;;;;;2.00;1.23;;;24.60;75.10;;;;;;5080880;28;20423;-72
2021/03/29 10:29:37;;;;;;;4.20;1.50;;;24.60;73.20;;;;;;5082616;28;20919;-73
2021/03/29 10:32:23;;;;;;;5.47;1.27;;;25.00;75.40;;;;;;5080027;28;20442;-73
2021/03/29 10:34:49;;;;;;;2.33;0.90;;;25.10;74.40;;;;;;5080733;28;20967;-73
2021/03/29 10:37:24;;;;;;;6.93;1.30;;;25.50;73.70;;;;;;5082913;28;20418;-73
2021/03/29 10:39:51;;;;;;;2.70;1.27;;;25.40;72.20;;;;;;5080623;28;20799;-70
2021/03/29 10:42:18;;;;;;;3.40;1.60;;;25.30;73.50;;;;;;5082094;28;20490;-70
2021/03/29 10:44:44;;;;;;;4.20;2.03;;;25.30;72.00;;;;;;5080233;28;20426;-73
2021/03/29 10:47:10;;;;;;;4.17;1.40;;;25.60;71.60;;;;;;5082913;28;20833;-73
2021/03/29 10:49:36;;;;;;;2.67;1.80;;;24.80;70.40;;;;;;5078498;28;20729;-73
2021/03/29 10:52:02;;;;;;;3.17;1.47;;;25.10;72.70;;;;;;5081789;28;20228;-72
2021/03/29 10:54:28;;;;;;;4.03;1.50;;;25.10;72.20;;;;;;5080900;28;20548;-73
2021/03/29 10:56:53;;;;;;;2.00;1.40;;;25.60;70.90;;;;;;5080660;28;20840;-71
2021/03/29 10:59:19;;;;;;;2.93;1.37;;;25.50;71.70;;;;;;5082172;28;20649;-72
2021/03/29 11:01:44;;;;;;;1.53;1.43;;;25.00;69.80;;;;;;5079416;28;20204;-73
2021/03/29 11:04:10;;;;;;;3.63;1.37;;;25.30;71.70;;;;;;5081463;28;20225;-75
2021/03/29 11:06:35;;;;;;;5.10;1.40;;;25.50;71.00;;;;;;5079886;28;20670;-72
2021/03/29 11:09:01;;;;;;;1.30;1.10;;;25.20;71.10;;;;;;5081763;28;20185;-74
2021/03/29 11:11:26;;;;;;;5.27;1.73;;;25.20;69.50;;;;;;5080793;28;20547;-74
2021/03/29 11:13:52;;;;;;;9.43;1.80;;;24.90;70.80;;;;;;5079973;28;20560;-73
2021/03/29 11:16:20;;;;;;;3.83;1.20;;;25.00;70.10;;;;;;5082021;28;20208;-74
2021/03/29 11:18:45;;;;;;;3.93;1.70;;;25.10;66.40;;;;;;5079032;28;20165;-74
2021/03/29 11:21:11;;;;;;;6.60;1.50;;;25.20;68.60;;;;;;5082567;28;20416;-74
2021/03/29 11:23:37;;;;;;;1.43;1.30;;;24.70;67.60;;;;;;5078775;28;20207;-74
2021/03/29 11:26:03;;;;;;;1.57;1.20;;;24.50;67.70;;;;;;5081731;28;20792;-74
2021/03/29 11:28:28;;;;;;;2.43;1.47;;;24.30;67.90;;;;;;5080384;28;20183;-74
2021/03/29 11:30:54;;;;;;;5.10;1.70;;;24.40;70.10;;;;;;5080521;28;20180;-74
2021/03/29 11:33:21;;;;;;;1.93;1.30;;;24.30;72.00;;;;;;5081025;28;20270;-76
2021/03/29 11:35:46;;;;;;;4.73;1.30;;;24.00;69.30;;;;;;5079205;28;20201;-72
2021/03/29 11:38:12;;;;;;;2.93;1.60;;;23.70;69.30;;;;;;5082544;28;20945;-73
2021/03/29 11:40:37;;;;;;;3.63;1.60;;;23.60;69.80;;;;;;5079044;28;20422;-74
2021/03/29 11:43:03;;;;;;;3.40;1.60;;;23.70;70.40;;;;;;5081573;28;20196;-72
2021/03/29 11:45:29;;;;;;;4.53;1.70;;;23.90;68.70;;;;;;5079691;28;20263;-72
2021/03/29 11:47:54;;;;;;;2.03;1.57;;;23.80;67.40;;;;;;5080034;28;20177;-73
2021/03/29 11:50:20;;;;;;;2.53;1.60;;;23.80;69.20;;;;;;5081089;28;20180;-73
2021/03/29 11:52:45;;;;;;;4.93;1.40;;;23.80;69.40;;;;;;5078592;28;20208;-73
2021/03/29 11:55:12;;;;;;;2.33;2.10;;;23.70;68.50;;;;;;5082079;28;20207;-73
2021/03/29 11:57:40;;;;;;;5.83;1.90;;;23.70;65.70;;;;;;5079190;28;20541;-73
2021/03/29 12:00:09;;;;;;;6.17;1.70;;;23.80;68.10;;;;;;5081882;28;20829;-73
2021/03/29 12:02:39;;;;;;;1.83;1.10;;;23.60;66.90;;;;;;5078917;28;20443;-72
2021/03/29 12:05:26;;;;;;;3.83;1.30;;;23.40;69.60;;;;;;5081913;28;20429;-73
2021/03/29 12:08:10;;;;;;;2.40;1.10;;;23.20;68.40;;;;;;5080054;28;20418;-73
2021/03/29 12:13:20;;;;;;;3.07;1.50;;;23.40;70.10;;;;;;5079968;28;20454;-73
2021/03/29 12:15:51;;;;;;;3.90;1.93;;;23.40;69.20;;;;;;5081400;28;20489;-74
2021/03/29 12:18:22;;;;;;;4.23;1.40;;;23.30;72.50;;;;;;5079499;28;20169;-73
2021/03/29 12:20:48;;;;;;;3.17;1.60;;;23.30;70.60;;;;;;5079992;28;20459;-73
2021/03/29 12:23:18;;;;;;;3.67;1.63;;;22.70;66.60;;;;;;5078336;28;20488;-73
2021/03/29 12:25:48;;;;;;;3.30;1.30;;;22.70;70.10;;;;;;5081770;28;20479;-73
2021/03/29 12:28:13;;;;;;;5.77;1.50;;;22.90;71.50;;;;;;5078826;28;20423;-72
2021/03/29 12:30:40;;;;;;;6.63;2.10;;;23.10;71.10;;;;;;5083664;28;20430;-72
2021/03/29 12:33:06;;;;;;;3.50;1.17;;;23.00;69.50;;;;;;5082081;28;20732;-72
2021/03/29 12:35:32;;;;;;;1.87;1.50;;;23.20;69.30;;;;;;5084814;28;20489;-72
2021/03/29 12:37:58;;;;;;;5.07;1.83;;;22.80;67.70;;;;;;5083360;28;20833;-72
2021/03/29 12:40:28;;;;;;;1.33;1.20;;;22.80;70.90;;;;;;5083945;28;20430;-71
2021/03/29 12:45:27;;;;;;;3.83;1.20;;;22.80;70.70;;;;;;5083040;28;20493;-72
2021/03/29 12:47:57;;;;;;;2.63;1.20;;;22.80;72.30;;;;;;5081227;28;20827;-72
2021/03/29 12:50:23;;;;;;;4.83;1.10;;;23.00;71.60;;;;;;5081595;28;20429;-78
2021/03/29 12:52:49;;;;;;;5.53;1.90;;;22.80;68.90;;;;;;5082605;28;20465;-75
2021/03/29 12:55:17;;;;;;;3.90;1.07;;;22.90;70.90;;;;;;5084588;28;20458;-74
2021/03/29 12:57:43;;;;;;;2.83;1.50;;;22.70;71.70;;;;;;5081790;28;20172;-75
2021/03/29 13:00:12;;;;;;;3.93;1.43;;;22.60;70.60;;;;;;5084990;28;20931;-74
2021/03/29 13:02:38;;;;;;;3.33;1.37;;;22.50;71.60;;;;;;5085009;28;20490;-74
2021/03/29 13:05:08;;;;;;;3.10;1.10;;;22.40;70.50;;;;;;5081676;28;20426;-72
2021/03/29 13:07:43;;;;;;;1.40;1.30;;;22.30;70.00;;;;;;5084575;28;20410;-72
2021/03/29 13:12:35;;;;;;;4.53;1.47;;;22.00;70.60;;;;;;5084551;28;20433;-73
2021/03/29 13:15:05;;;;;;;4.47;1.40;;;22.10;70.80;;;;;;5081887;28;20457;-72